sensor_id;sensor_type;location;lat;lon;timestamp;pressure;altitude;pressure_sealevel;temperature;humidity
7930;BME280;4010;42.698;23.124;2023-04-12T00:00:52;118349.16;;;-140.64;100.00
7930;BME280;4010;42.698;23.124;2023-04-12T00:03:18;118349.16;;;-140.64;100.00
7930;BME280;4010;42.698;23.124;2023-04-12T00:05:46;118349.16;;;-140.64;100.00
7930;BME280;4010;42.698;23.124;2023-04-12T00:08:13;118349.16;;;-140.64;100.00
7930;BME280;4010;42.698;23.124;2023-04-12T00:10:40;118349.16;;;-140.64;100.00
7930;BME280;4010;42.698;23.124;2023-04-12T00:13:07;118349.16;;;-140.64;100.00
7930;BME280;4010;42.698;23.124;2023-04-12T00:15:35;118349.16;;;-140.64;100.00
7930;BME280;4010;42.698;23.124;2023-04-12T00:18:02;118349.16;;;-140.64;100.00
7930;BME280;4010;42.698;23.124;2023-04-12T00:20:29;118349.16;;;-140.64;100.00
7930;BME280;4010;42.698;23.124;2023-04-12T00:22:55;118349.16;;;-140.64;100.00
7930;BME280;4010;42.698;23.124;2023-04-12T00:25:22;118349.16;;;-140.64;100.00
7930;BME280;4010;42.698;23.124;2023-04-12T00:27:49;118349.16;;;-140.64;100.00
7930;BME280;4010;42.698;23.124;2023-04-12T00:30:16;118349.16;;;-140.64;100.00
7930;BME280;4010;42.698;23.124;2023-04-12T00:32:44;118349.16;;;-140.64;100.00
7930;BME280;4010;42.698;23.124;2023-04-12T00:35:11;118349.16;;;-140.64;100.00
7930;BME280;4010;42.698;23.124;2023-04-12T00:37:37;118349.16;;;-140.64;100.00
7930;BME280;4010;42.698;23.124;2023-04-12T00:40:05;118349.16;;;-140.64;100.00
7930;BME280;4010;42.698;23.124;2023-04-12T00:42:34;118349.16;;;-140.64;100.00
7930;BME280;4010;42.698;23.124;2023-04-12T00:45:02;118349.16;;;-140.64;100.00
7930;BME280;4010;42.698;23.124;2023-04-12T00:47:29;118349.16;;;-140.64;100.00
7930;BME280;4010;42.698;23.124;2023-04-12T00:49:58;118349.16;;;-140.64;100.00
7930;BME280;4010;42.698;23.124;2023-04-12T00:52:25;118349.16;;;-140.64;100.00
7930;BME280;4010;42.698;23.124;2023-04-12T00:54:58;118349.16;;;-140.64;100.00
7930;BME280;4010;42.698;23.124;2023-04-12T00:57:25;118349.16;;;-140.64;100.00
7930;BME280;4010;42.698;23.124;2023-04-12T00:59:52;118349.16;;;-140.64;100.00
7930;BME280;4010;42.698;23.124;2023-04-12T01:02:19;118349.16;;;-140.64;100.00
7930;BME280;4010;42.698;23.124;2023-04-12T01:04:45;118349.16;;;-140.64;100.00
7930;BME280;4010;42.698;23.124;2023-04-12T01:07:23;118349.16;;;-140.64;100.00
7930;BME280;4010;42.698;23.124;2023-04-12T01:09:56;118349.16;;;-140.64;100.00
7930;BME280;4010;42.698;23.124;2023-04-12T01:12:35;118349.16;;;-140.64;100.00
7930;BME280;4010;42.698;23.124;2023-04-12T01:15:09;118349.16;;;-140.64;100.00
7930;BME280;4010;42.698;23.124;2023-04-12T01:17:41;118349.16;;;-140.64;100.00
7930;BME280;4010;42.698;23.124;2023-04-12T01:20:14;118349.16;;;-140.64;100.00
7930;BME280;4010;42.698;23.124;2023-04-12T01:22:58;118349.16;;;-140.64;100.00
7930;BME280;4010;42.698;23.124;2023-04-12T01:25:52;118349.16;;;-140.64;100.00
7930;BME280;4010;42.698;23.124;2023-04-12T01:28:28;118349.16;;;-140.64;100.00
7930;BME280;4010;42.698;23.124;2023-04-12T01:31:00;118349.16;;;-140.64;100.00
7930;BME280;4010;42.698;23.124;2023-04-12T01:33:28;118349.16;;;-140.64;100.00
7930;BME280;4010;42.698;23.124;2023-04-12T01:35:57;118349.16;;;-140.64;100.00
7930;BME280;4010;42.698;23.124;2023-04-12T01:38:25;118349.16;;;-140.64;100.00
7930;BME280;4010;42.698;23.124;2023-04-12T01:40:52;118349.16;;;-140.64;100.00
7930;BME280;4010;42.698;23.124;2023-04-12T01:43:19;118349.16;;;-140.64;100.00
7930;BME280;4010;42.698;23.124;2023-04-12T01:45:48;118349.16;;;-140.64;100.00
7930;BME280;4010;42.698;23.124;2023-04-12T01:48:14;118349.16;;;-140.64;100.00
7930;BME280;4010;42.698;23.124;2023-04-12T01:50:49;118349.16;;;-140.64;100.00
7930;BME280;4010;42.698;23.124;2023-04-12T01:53:20;118349.16;;;-140.64;100.00
7930;BME280;4010;42.698;23.124;2023-04-12T01:55:49;118349.16;;;-140.64;100.00
7930;BME280;4010;42.698;23.124;2023-04-12T01:58:20;118349.16;;;-140.64;100.00
7930;BME280;4010;42.698;23.124;2023-04-12T02:00:48;118349.16;;;-140.64;100.00
7930;BME280;4010;42.698;23.124;2023-04-12T02:03:17;118349.16;;;-140.64;100.00
7930;BME280;4010;42.698;23.124;2023-04-12T02:05:44;118349.16;;;-140.64;100.00
7930;BME280;4010;42.698;23.124;2023-04-12T02:08:11;118349.16;;;-140.64;100.00
7930;BME280;4010;42.698;23.124;2023-04-12T02:10:38;118349.16;;;-140.64;100.00
7930;BME280;4010;42.698;23.124;2023-04-12T02:13:05;118349.16;;;-140.64;100.00
7930;BME280;4010;42.698;23.124;2023-04-12T02:15:31;118349.16;;;-140.64;100.00
7930;BME280;4010;42.698;23.124;2023-04-12T02:18:00;118349.16;;;-140.64;100.00
7930;BME280;4010;42.698;23.124;2023-04-12T02:20:27;118349.16;;;-140.64;100.00
7930;BME280;4010;42.698;23.124;2023-04-12T02:22:54;118349.16;;;-140.64;100.00
7930;BME280;4010;42.698;23.124;2023-04-12T02:25:21;118349.16;;;-140.64;100.00
7930;BME280;4010;42.698;23.124;2023-04-12T02:27:47;118349.16;;;-140.64;100.00
7930;BME280;4010;42.698;23.124;2023-04-12T02:30:14;118349.16;;;-140.64;100.00
7930;BME280;4010;42.698;23.124;2023-04-12T02:32:41;118349.16;;;-140.64;100.00
7930;BME280;4010;42.698;23.124;2023-04-12T02:35:14;118349.16;;;-140.64;100.00
7930;BME280;4010;42.698;23.124;2023-04-12T02:37:43;118349.16;;;-140.64;100.00
7930;BME280;4010;42.698;23.124;2023-04-12T02:40:11;118349.16;;;-140.64;100.00
7930;BME280;4010;42.698;23.124;2023-04-12T02:42:40;118349.16;;;-140.64;100.00
7930;BME280;4010;42.698;23.124;2023-04-12T02:45:07;118349.16;;;-140.64;100.00
7930;BME280;4010;42.698;23.124;2023-04-12T02:47:34;118349.16;;;-140.64;100.00
7930;BME280;4010;42.698;23.124;2023-04-12T02:50:00;118349.16;;;-140.64;100.00
7930;BME280;4010;42.698;23.124;2023-04-12T02:52:29;118349.16;;;-140.64;100.00
7930;BME280;4010;42.698;23.124;2023-04-12T02:54:57;118349.16;;;-140.64;100.00
7930;BME280;4010;42.698;23.124;2023-04-12T02:57:24;118349.16;;;-140.64;100.00
7930;BME280;4010;42.698;23.124;2023-04-12T02:59:51;118349.16;;;-140.64;100.00
7930;BME280;4010;42.698;23.124;2023-04-12T03:02:18;118349.16;;;-140.64;100.00
7930;BME280;4010;42.698;23.124;2023-04-12T03:04:45;118349.16;;;-140.64;100.00
7930;BME280;4010;42.698;23.124;2023-04-12T03:07:15;118349.16;;;-140.64;100.00
7930;BME280;4010;42.698;23.124;2023-04-12T03:09:43;118349.16;;;-140.64;100.00
7930;BME280;4010;42.698;23.124;2023-04-12T03:12:10;118349.16;;;-140.64;100.00
7930;BME280;4010;42.698;23.124;2023-04-12T03:14:37;118349.16;;;-140.64;100.00
7930;BME280;4010;42.698;23.124;2023-04-12T03:17:03;118349.16;;;-140.64;100.00
7930;BME280;4010;42.698;23.124;2023-04-12T03:19:30;118349.16;;;-140.64;100.00
7930;BME280;4010;42.698;23.124;2023-04-12T03:21:59;118349.16;;;-140.64;100.00
7930;BME280;4010;42.698;23.124;2023-04-12T03:24:26;118349.16;;;-140.64;100.00
7930;BME280;4010;42.698;23.124;2023-04-12T03:26:54;118349.16;;;-140.64;100.00
7930;BME280;4010;42.698;23.124;2023-04-12T03:29:22;118349.16;;;-140.64;100.00
7930;BME280;4010;42.698;23.124;2023-04-12T03:31:49;118349.16;;;-140.64;100.00
7930;BME280;4010;42.698;23.124;2023-04-12T03:34:15;118349.16;;;-140.64;100.00
7930;BME280;4010;42.698;23.124;2023-04-12T03:36:42;118349.16;;;-140.64;100.00
7930;BME280;4010;42.698;23.124;2023-04-12T03:39:09;118349.16;;;-140.64;100.00
7930;BME280;4010;42.698;23.124;2023-04-12T03:41:35;118349.16;;;-140.64;100.00
7930;BME280;4010;42.698;23.124;2023-04-12T03:44:03;118349.16;;;-140.64;100.00
7930;BME280;4010;42.698;23.124;2023-04-12T03:46:32;118349.16;;;-140.64;100.00
7930;BME280;4010;42.698;23.124;2023-04-12T03:48:58;118349.16;;;-140.64;100.00
7930;BME280;4010;42.698;23.124;2023-04-12T03:51:25;118349.16;;;-140.64;100.00
7930;BME280;4010;42.698;23.124;2023-04-12T03:53:54;118349.16;;;-140.64;100.00
7930;BME280;4010;42.698;23.124;2023-04-12T03:56:21;118349.16;;;-140.64;100.00
7930;BME280;4010;42.698;23.124;2023-04-12T03:58:48;118349.16;;;-140.64;100.00
7930;BME280;4010;42.698;23.124;2023-04-12T04:01:16;118349.16;;;-140.64;100.00
7930;BME280;4010;42.698;23.124;2023-04-12T04:03:43;118349.16;;;-140.64;100.00
7930;BME280;4010;42.698;23.124;2023-04-12T04:06:10;118349.16;;;-140.64;100.00
7930;BME280;4010;42.698;23.124;2023-04-12T04:08:37;118349.16;;;-140.64;100.00
7930;BME280;4010;42.698;23.124;2023-04-12T04:11:04;118349.16;;;-140.64;100.00
7930;BME280;4010;42.698;23.124;2023-04-12T04:13:31;118349.16;;;-140.64;100.00
7930;BME280;4010;42.698;23.124;2023-04-12T04:16:01;118349.16;;;-140.64;100.00
7930;BME280;4010;42.698;23.124;2023-04-12T04:18:29;118349.16;;;-140.64;100.00
7930;BME280;4010;42.698;23.124;2023-04-12T04:20:56;118349.16;;;-140.64;100.00
7930;BME280;4010;42.698;23.124;2023-04-12T04:23:23;118349.16;;;-140.64;100.00
7930;BME280;4010;42.698;23.124;2023-04-12T04:25:49;118349.16;;;-140.64;100.00
7930;BME280;4010;42.698;23.124;2023-04-12T04:28:17;118349.16;;;-140.64;100.00
7930;BME280;4010;42.698;23.124;2023-04-12T04:30:44;118349.16;;;-140.64;100.00
7930;BME280;4010;42.698;23.124;2023-04-12T04:33:11;118349.16;;;-140.64;100.00
7930;BME280;4010;42.698;23.124;2023-04-12T04:35:41;118349.16;;;-140.64;100.00
7930;BME280;4010;42.698;23.124;2023-04-12T04:38:08;118349.16;;;-140.64;100.00
7930;BME280;4010;42.698;23.124;2023-04-12T04:40:35;118349.16;;;-140.64;100.00
7930;BME280;4010;42.698;23.124;2023-04-12T04:43:02;118349.16;;;-140.64;100.00
7930;BME280;4010;42.698;23.124;2023-04-12T04:45:29;118349.16;;;-140.64;100.00
7930;BME280;4010;42.698;23.124;2023-04-12T04:47:56;118349.16;;;-140.64;100.00
7930;BME280;4010;42.698;23.124;2023-04-12T04:50:24;118349.16;;;-140.64;100.00
7930;BME280;4010;42.698;23.124;2023-04-12T04:52:52;118349.16;;;-140.64;100.00
7930;BME280;4010;42.698;23.124;2023-04-12T04:55:19;118349.16;;;-140.64;100.00
7930;BME280;4010;42.698;23.124;2023-04-12T04:57:46;118349.16;;;-140.64;100.00
7930;BME280;4010;42.698;23.124;2023-04-12T05:00:13;118349.16;;;-140.64;100.00
7930;BME280;4010;42.698;23.124;2023-04-12T05:02:41;118349.16;;;-140.64;100.00
7930;BME280;4010;42.698;23.124;2023-04-12T05:05:09;118349.16;;;-140.64;100.00
7930;BME280;4010;42.698;23.124;2023-04-12T05:07:36;118349.16;;;-140.64;100.00
7930;BME280;4010;42.698;23.124;2023-04-12T05:10:05;118349.16;;;-140.64;100.00
7930;BME280;4010;42.698;23.124;2023-04-12T05:12:32;118349.16;;;-140.64;100.00
7930;BME280;4010;42.698;23.124;2023-04-12T05:14:59;118349.16;;;-140.64;100.00
7930;BME280;4010;42.698;23.124;2023-04-12T05:17:26;118349.16;;;-140.64;100.00
7930;BME280;4010;42.698;23.124;2023-04-12T05:19:53;118349.16;;;-140.64;100.00
7930;BME280;4010;42.698;23.124;2023-04-12T05:22:20;118349.16;;;-140.64;100.00
7930;BME280;4010;42.698;23.124;2023-04-12T05:24:47;118349.16;;;-140.64;100.00
7930;BME280;4010;42.698;23.124;2023-04-12T05:27:15;118349.16;;;-140.64;100.00
7930;BME280;4010;42.698;23.124;2023-04-12T05:29:41;118349.16;;;-140.64;100.00
7930;BME280;4010;42.698;23.124;2023-04-12T05:32:08;118349.16;;;-140.64;99.58
7930;BME280;4010;42.698;23.124;2023-04-12T05:34:35;118349.16;;;-140.64;97.43
7930;BME280;4010;42.698;23.124;2023-04-12T05:37:02;118349.16;;;-140.64;96.94
7930;BME280;4010;42.698;23.124;2023-04-12T05:39:29;118349.16;;;-140.64;96.61
7930;BME280;4010;42.698;23.124;2023-04-12T05:41:55;118349.16;;;-140.64;94.98
7930;BME280;4010;42.698;23.124;2023-04-12T05:44:23;118349.16;;;-140.64;93.49
7930;BME280;4010;42.698;23.124;2023-04-12T05:46:50;118349.16;;;-140.64;92.66
7930;BME280;4010;42.698;23.124;2023-04-12T05:49:17;118349.16;;;-140.64;92.47
7930;BME280;4010;42.698;23.124;2023-04-12T05:51:44;118349.16;;;-140.64;91.65
7930;BME280;4010;42.698;23.124;2023-04-12T05:54:10;118349.16;;;-140.64;93.76
7930;BME280;4010;42.698;23.124;2023-04-12T05:56:37;118349.16;;;-140.64;91.78
7930;BME280;4010;42.698;23.124;2023-04-12T05:59:04;118349.16;;;-140.64;92.44
7930;BME280;4010;42.698;23.124;2023-04-12T06:01:32;118349.16;;;-140.64;92.41
7930;BME280;4010;42.698;23.124;2023-04-12T06:03:59;118349.16;;;-140.64;92.75
7930;BME280;4010;42.698;23.124;2023-04-12T06:06:27;118349.16;;;-140.64;93.86
7930;BME280;4010;42.698;23.124;2023-04-12T06:08:54;118349.16;;;-140.64;93.38
7930;BME280;4010;42.698;23.124;2023-04-12T06:11:22;118349.16;;;-140.64;91.39
7930;BME280;4010;42.698;23.124;2023-04-12T06:13:48;118349.16;;;-140.64;91.71
7930;BME280;4010;42.698;23.124;2023-04-12T06:16:15;118349.16;;;-140.64;91.33
7930;BME280;4010;42.698;23.124;2023-04-12T06:18:43;118349.16;;;-140.64;92.85
7930;BME280;4010;42.698;23.124;2023-04-12T06:21:10;118349.16;;;-140.64;93.78
7930;BME280;4010;42.698;23.124;2023-04-12T06:23:37;118349.16;;;-140.64;93.04
7930;BME280;4010;42.698;23.124;2023-04-12T06:26:04;118349.16;;;-140.64;93.28
7930;BME280;4010;42.698;23.124;2023-04-12T06:28:31;118349.16;;;-140.64;93.16
7930;BME280;4010;42.698;23.124;2023-04-12T06:30:57;118349.16;;;-140.64;90.58
7930;BME280;4010;42.698;23.124;2023-04-12T06:33:24;118349.16;;;-140.64;91.75
7930;BME280;4010;42.698;23.124;2023-04-12T06:35:52;118349.16;;;-140.64;90.21
7930;BME280;4010;42.698;23.124;2023-04-12T06:38:19;118349.16;;;-140.64;89.03
7930;BME280;4010;42.698;23.124;2023-04-12T06:40:46;118349.16;;;-140.64;89.28
7930;BME280;4010;42.698;23.124;2023-04-12T06:43:13;118349.16;;;-140.64;89.85
7930;BME280;4010;42.698;23.124;2023-04-12T06:45:40;118349.16;;;-140.64;91.17
7930;BME280;4010;42.698;23.124;2023-04-12T06:48:07;118349.16;;;-140.64;91.28
7930;BME280;4010;42.698;23.124;2023-04-12T06:50:34;118349.16;;;-140.64;89.83
7930;BME280;4010;42.698;23.124;2023-04-12T06:53:02;118349.16;;;-140.64;90.65
7930;BME280;4010;42.698;23.124;2023-04-12T06:55:28;118349.16;;;-140.64;90.21
7930;BME280;4010;42.698;23.124;2023-04-12T06:57:55;118349.16;;;-140.64;89.64
7930;BME280;4010;42.698;23.124;2023-04-12T07:00:22;118349.16;;;-140.64;88.27
7930;BME280;4010;42.698;23.124;2023-04-12T07:02:49;118349.16;;;-140.64;89.11
7930;BME280;4010;42.698;23.124;2023-04-12T07:05:16;118349.16;;;-140.64;87.03
7930;BME280;4010;42.698;23.124;2023-04-12T07:07:43;118349.16;;;-140.64;88.95
7930;BME280;4010;42.698;23.124;2023-04-12T07:10:11;118349.16;;;-140.64;88.58
7930;BME280;4010;42.698;23.124;2023-04-12T07:12:38;118349.16;;;-140.64;90.09
7930;BME280;4010;42.698;23.124;2023-04-12T07:15:05;118349.16;;;-140.64;92.67
7930;BME280;4010;42.698;23.124;2023-04-12T07:17:32;118349.16;;;-140.64;90.63
7930;BME280;4010;42.698;23.124;2023-04-12T07:19:58;118349.16;;;-140.64;90.18
7930;BME280;4010;42.698;23.124;2023-04-12T07:22:25;118349.16;;;-140.64;88.33
7930;BME280;4010;42.698;23.124;2023-04-12T07:24:52;118349.16;;;-140.64;87.90
7930;BME280;4010;42.698;23.124;2023-04-12T07:27:20;118349.16;;;-140.64;86.10
7930;BME280;4010;42.698;23.124;2023-04-12T07:29:46;118349.16;;;-140.64;88.34
7930;BME280;4010;42.698;23.124;2023-04-12T07:32:13;118349.16;;;-140.64;79.75
7930;BME280;4010;42.698;23.124;2023-04-12T07:34:40;118349.16;;;-140.64;79.11
7930;BME280;4010;42.698;23.124;2023-04-12T07:37:06;118349.16;;;-140.64;78.25
7930;BME280;4010;42.698;23.124;2023-04-12T07:39:33;118349.16;;;-140.64;79.38
7930;BME280;4010;42.698;23.124;2023-04-12T07:42:01;118349.16;;;-140.64;73.79
7930;BME280;4010;42.698;23.124;2023-04-12T07:44:29;118349.16;;;-140.64;72.27
7930;BME280;4010;42.698;23.124;2023-04-12T07:46:58;118349.16;;;-140.64;64.66
7930;BME280;4010;42.698;23.124;2023-04-12T07:49:25;118349.16;;;-140.64;63.84
7930;BME280;4010;42.698;23.124;2023-04-12T07:51:51;118349.16;;;-140.64;61.89
7930;BME280;4010;42.698;23.124;2023-04-12T07:54:18;118349.16;;;-140.64;66.23
7930;BME280;4010;42.698;23.124;2023-04-12T07:56:56;118349.16;;;-140.64;63.60
7930;BME280;4010;42.698;23.124;2023-04-12T07:59:23;118349.16;;;-140.64;65.74
7930;BME280;4010;42.698;23.124;2023-04-12T08:01:51;118349.16;;;-140.64;65.29
7930;BME280;4010;42.698;23.124;2023-04-12T08:04:18;118349.16;;;-140.64;65.15
7930;BME280;4010;42.698;23.124;2023-04-12T08:06:45;118349.16;;;-140.64;65.14
7930;BME280;4010;42.698;23.124;2023-04-12T08:09:12;118349.16;;;-140.64;66.66
7930;BME280;4010;42.698;23.124;2023-04-12T08:11:38;118349.16;;;-140.64;65.76
7930;BME280;4010;42.698;23.124;2023-04-12T08:14:05;118349.16;;;-140.64;68.36
7930;BME280;4010;42.698;23.124;2023-04-12T08:16:32;118349.16;;;-140.64;70.14
7930;BME280;4010;42.698;23.124;2023-04-12T08:19:00;118349.16;;;-140.64;64.02
7930;BME280;4010;42.698;23.124;2023-04-12T08:21:27;118349.16;;;-140.64;64.87
7930;BME280;4010;42.698;23.124;2023-04-12T08:23:54;118349.16;;;-140.64;64.80
7930;BME280;4010;42.698;23.124;2023-04-12T08:26:21;118349.16;;;-140.64;64.72
7930;BME280;4010;42.698;23.124;2023-04-12T08:28:47;118349.16;;;-140.64;62.27
7930;BME280;4010;42.698;23.124;2023-04-12T08:31:14;118349.16;;;-140.64;62.92
7930;BME280;4010;42.698;23.124;2023-04-12T08:33:42;118349.16;;;-140.64;61.39
7930;BME280;4010;42.698;23.124;2023-04-12T08:36:10;118349.16;;;-140.64;60.54
7930;BME280;4010;42.698;23.124;2023-04-12T08:38:37;118349.16;;;-140.64;59.63
7930;BME280;4010;42.698;23.124;2023-04-12T08:41:04;118349.16;;;-140.64;58.01
7930;BME280;4010;42.698;23.124;2023-04-12T08:43:32;118349.16;;;-140.64;58.50
7930;BME280;4010;42.698;23.124;2023-04-12T08:45:59;118349.16;;;-140.64;56.87
7930;BME280;4010;42.698;23.124;2023-04-12T08:48:26;118349.16;;;-140.64;56.67
7930;BME280;4010;42.698;23.124;2023-04-12T08:50:55;118349.16;;;-140.64;59.98
7930;BME280;4010;42.698;23.124;2023-04-12T08:53:23;118349.16;;;-140.64;56.68
7930;BME280;4010;42.698;23.124;2023-04-12T08:55:50;118349.16;;;-140.64;57.19
7930;BME280;4010;42.698;23.124;2023-04-12T08:58:17;118349.16;;;-140.64;57.59
7930;BME280;4010;42.698;23.124;2023-04-12T09:00:45;118349.16;;;-140.64;55.83
7930;BME280;4010;42.698;23.124;2023-04-12T09:03:13;118349.16;;;-140.64;55.82
7930;BME280;4010;42.698;23.124;2023-04-12T09:05:40;118349.16;;;-140.64;56.29
7930;BME280;4010;42.698;23.124;2023-04-12T09:08:06;118349.16;;;-140.64;57.69
7930;BME280;4010;42.698;23.124;2023-04-12T09:10:36;118349.16;;;-140.64;55.32
7930;BME280;4010;42.698;23.124;2023-04-12T09:13:03;118349.16;;;-140.64;52.51
7930;BME280;4010;42.698;23.124;2023-04-12T09:15:30;118349.16;;;-140.64;54.49
7930;BME280;4010;42.698;23.124;2023-04-12T09:18:06;118349.16;;;-140.64;54.37
7930;BME280;4010;42.698;23.124;2023-04-12T09:20:33;118349.16;;;-140.64;54.92
7930;BME280;4010;42.698;23.124;2023-04-12T09:23:11;118349.16;;;-140.64;55.16
7930;BME280;4010;42.698;23.124;2023-04-12T09:25:43;118349.16;;;-140.64;56.07
7930;BME280;4010;42.698;23.124;2023-04-12T09:28:20;118349.16;;;-140.64;55.07
7930;BME280;4010;42.698;23.124;2023-04-12T09:30:47;118349.16;;;-140.64;52.34
7930;BME280;4010;42.698;23.124;2023-04-12T09:33:17;118349.16;;;-140.64;52.92
7930;BME280;4010;42.698;23.124;2023-04-12T09:35:45;118349.16;;;-140.64;53.16
7930;BME280;4010;42.698;23.124;2023-04-12T09:38:11;118349.16;;;-140.64;53.36
7930;BME280;4010;42.698;23.124;2023-04-12T09:40:38;118349.16;;;-140.64;52.19
7930;BME280;4010;42.698;23.124;2023-04-12T09:43:06;118349.16;;;-140.64;48.18
7930;BME280;4010;42.698;23.124;2023-04-12T09:45:35;118349.16;;;-140.64;50.59
7930;BME280;4010;42.698;23.124;2023-04-12T09:48:03;118349.16;;;-140.64;51.46
7930;BME280;4010;42.698;23.124;2023-04-12T09:50:31;118349.16;;;-140.64;46.81
7930;BME280;4010;42.698;23.124;2023-04-12T09:53:00;118349.16;;;-140.64;48.07
7930;BME280;4010;42.698;23.124;2023-04-12T09:55:28;118349.16;;;-140.64;48.04
7930;BME280;4010;42.698;23.124;2023-04-12T09:58:00;118349.16;;;-140.64;45.17
7930;BME280;4010;42.698;23.124;2023-04-12T10:00:29;118349.16;;;-140.64;45.23
7930;BME280;4010;42.698;23.124;2023-04-12T10:02:58;118349.16;;;-140.64;45.39
7930;BME280;4010;42.698;23.124;2023-04-12T10:05:27;118349.16;;;-140.64;45.11
7930;BME280;4010;42.698;23.124;2023-04-12T10:07:54;118349.16;;;-140.64;45.30
7930;BME280;4010;42.698;23.124;2023-04-12T10:10:22;118349.16;;;-140.64;45.93
7930;BME280;4010;42.698;23.124;2023-04-12T10:12:49;118349.16;;;-140.64;44.01
7930;BME280;4010;42.698;23.124;2023-04-12T10:15:17;118349.16;;;-140.64;46.88
7930;BME280;4010;42.698;23.124;2023-04-12T10:17:49;118349.16;;;-140.64;45.22
7930;BME280;4010;42.698;23.124;2023-04-12T10:20:17;118349.16;;;-140.64;44.91
7930;BME280;4010;42.698;23.124;2023-04-12T10:22:45;118349.16;;;-140.64;44.39
7930;BME280;4010;42.698;23.124;2023-04-12T10:25:13;118349.16;;;-140.64;42.20
7930;BME280;4010;42.698;23.124;2023-04-12T10:27:41;118349.16;;;-140.64;43.59
7930;BME280;4010;42.698;23.124;2023-04-12T10:30:19;118349.16;;;-140.64;42.98
7930;BME280;4010;42.698;23.124;2023-04-12T10:32:50;118349.16;;;-140.64;44.74
7930;BME280;4010;42.698;23.124;2023-04-12T10:35:55;118349.16;;;-140.64;46.90
7930;BME280;4010;42.698;23.124;2023-04-12T10:38:23;118349.16;;;-140.64;40.71
7930;BME280;4010;42.698;23.124;2023-04-12T10:41:14;118349.16;;;-140.64;39.24
7930;BME280;4010;42.698;23.124;2023-04-12T10:43:41;118349.16;;;-140.64;38.99
7930;BME280;4010;42.698;23.124;2023-04-12T10:46:47;118349.16;;;-140.64;39.37
7930;BME280;4010;42.698;23.124;2023-04-12T10:49:18;118349.16;;;-140.64;40.13
7930;BME280;4010;42.698;23.124;2023-04-12T10:52:12;118349.16;;;-140.64;40.83
7930;BME280;4010;42.698;23.124;2023-04-12T10:54:40;118349.16;;;-140.64;41.60
7930;BME280;4010;42.698;23.124;2023-04-12T10:57:40;118349.16;;;-140.64;36.53
7930;BME280;4010;42.698;23.124;2023-04-12T11:00:08;118349.16;;;-140.64;37.61
7930;BME280;4010;42.698;23.124;2023-04-12T11:03:04;118349.16;;;-140.64;37.15
7930;BME280;4010;42.698;23.124;2023-04-12T11:05:59;118349.16;;;-140.64;38.15
7930;BME280;4010;42.698;23.124;2023-04-12T11:08:27;118349.16;;;-140.64;37.64
7930;BME280;4010;42.698;23.124;2023-04-12T11:11:01;118349.16;;;-140.64;34.55
7930;BME280;4010;42.698;23.124;2023-04-12T11:13:34;118349.16;;;-140.64;35.13
7930;BME280;4010;42.698;23.124;2023-04-12T11:16:02;118349.16;;;-140.64;33.19
7930;BME280;4010;42.698;23.124;2023-04-12T11:18:29;118349.16;;;-140.64;33.66
7930;BME280;4010;42.698;23.124;2023-04-12T11:20:57;118349.16;;;-140.64;33.60
7930;BME280;4010;42.698;23.124;2023-04-12T11:23:25;118349.16;;;-140.64;34.42
7930;BME280;4010;42.698;23.124;2023-04-12T11:25:52;118349.16;;;-140.64;33.21
7930;BME280;4010;42.698;23.124;2023-04-12T11:28:19;118349.16;;;-140.64;34.05
7930;BME280;4010;42.698;23.124;2023-04-12T11:30:51;118349.16;;;-140.64;33.18
7930;BME280;4010;42.698;23.124;2023-04-12T11:33:32;118349.16;;;-140.64;31.59
7930;BME280;4010;42.698;23.124;2023-04-12T11:36:02;118349.16;;;-140.64;33.05
7930;BME280;4010;42.698;23.124;2023-04-12T11:38:30;118349.16;;;-140.64;32.81
7930;BME280;4010;42.698;23.124;2023-04-12T11:40:57;118349.16;;;-140.64;33.11
7930;BME280;4010;42.698;23.124;2023-04-12T11:43:24;118349.16;;;-140.64;36.43
7930;BME280;4010;42.698;23.124;2023-04-12T11:45:55;118349.16;;;-140.64;31.50
7930;BME280;4010;42.698;23.124;2023-04-12T11:48:22;118349.16;;;-140.64;31.97
7930;BME280;4010;42.698;23.124;2023-04-12T11:50:49;118349.16;;;-140.64;32.54
7930;BME280;4010;42.698;23.124;2023-04-12T11:53:16;118349.16;;;-140.64;32.87
7930;BME280;4010;42.698;23.124;2023-04-12T11:55:48;118349.16;;;-140.64;34.62
7930;BME280;4010;42.698;23.124;2023-04-12T11:58:15;118349.16;;;-140.64;33.75
7930;BME280;4010;42.698;23.124;2023-04-12T12:00:43;118349.16;;;-140.64;34.27
7930;BME280;4010;42.698;23.124;2023-04-12T12:03:11;118349.16;;;-140.64;34.68
7930;BME280;4010;42.698;23.124;2023-04-12T12:05:38;118349.16;;;-140.64;34.99
7930;BME280;4010;42.698;23.124;2023-04-12T12:08:06;118349.16;;;-140.64;33.87
7930;BME280;4010;42.698;23.124;2023-04-12T12:10:34;118349.16;;;-140.64;34.19
7930;BME280;4010;42.698;23.124;2023-04-12T12:13:02;118349.16;;;-140.64;36.52
7930;BME280;4010;42.698;23.124;2023-04-12T12:15:29;118349.16;;;-140.64;35.00
7930;BME280;4010;42.698;23.124;2023-04-12T12:17:56;118349.16;;;-140.64;33.76
7930;BME280;4010;42.698;23.124;2023-04-12T12:20:23;118349.16;;;-140.64;33.49
7930;BME280;4010;42.698;23.124;2023-04-12T12:22:51;118349.16;;;-140.64;33.80
7930;BME280;4010;42.698;23.124;2023-04-12T12:25:18;118349.16;;;-140.64;34.71
7930;BME280;4010;42.698;23.124;2023-04-12T12:27:45;118349.16;;;-140.64;34.05
7930;BME280;4010;42.698;23.124;2023-04-12T12:30:17;118349.16;;;-140.64;34.32
7930;BME280;4010;42.698;23.124;2023-04-12T12:32:44;118349.16;;;-140.64;35.70
7930;BME280;4010;42.698;23.124;2023-04-12T12:35:12;118349.16;;;-140.64;36.58
7930;BME280;4010;42.698;23.124;2023-04-12T12:37:47;118349.16;;;-140.64;35.70
7930;BME280;4010;42.698;23.124;2023-04-12T12:40:15;118349.16;;;-140.64;36.04
7930;BME280;4010;42.698;23.124;2023-04-12T12:42:46;118349.16;;;-140.64;36.66